sensor_id;sensor_type;location;lat;lon;timestamp;temperature;humidity
30534;DHT22;17318;52.390;9.754;2023-04-24T00:00:02;15.00;97.20
30534;DHT22;17318;52.390;9.754;2023-04-24T00:02:31;14.90;97.20
30534;DHT22;17318;52.390;9.754;2023-04-24T00:04:58;14.90;97.30
30534;DHT22;17318;52.390;9.754;2023-04-24T00:07:28;14.90;97.00
30534;DHT22;17318;52.390;9.754;2023-04-24T00:09:54;14.80;97.10
30534;DHT22;17318;52.390;9.754;2023-04-24T00:12:20;14.80;97.40
30534;DHT22;17318;52.390;9.754;2023-04-24T00:14:46;14.80;97.10
30534;DHT22;17318;52.390;9.754;2023-04-24T00:17:12;14.80;97.20
30534;DHT22;17318;52.390;9.754;2023-04-24T00:19:38;14.80;97.10
30534;DHT22;17318;52.390;9.754;2023-04-24T00:22:03;14.80;97.50
30534;DHT22;17318;52.390;9.754;2023-04-24T00:24:29;14.80;96.90
30534;DHT22;17318;52.390;9.754;2023-04-24T00:26:55;14.70;97.20
30534;DHT22;17318;52.390;9.754;2023-04-24T00:29:20;14.70;97.30
30534;DHT22;17318;52.390;9.754;2023-04-24T00:31:46;14.70;97.30
30534;DHT22;17318;52.390;9.754;2023-04-24T00:34:12;14.70;97.30
30534;DHT22;17318;52.390;9.754;2023-04-24T00:36:38;14.60;97.10
30534;DHT22;17318;52.390;9.754;2023-04-24T00:39:03;14.70;97.20
30534;DHT22;17318;52.390;9.754;2023-04-24T00:41:29;14.70;97.10
30534;DHT22;17318;52.390;9.754;2023-04-24T00:43:55;14.60;97.40
30534;DHT22;17318;52.390;9.754;2023-04-24T00:46:21;14.60;97.20
30534;DHT22;17318;52.390;9.754;2023-04-24T00:48:47;14.60;97.30
30534;DHT22;17318;52.390;9.754;2023-04-24T00:51:13;14.70;97.30
30534;DHT22;17318;52.390;9.754;2023-04-24T00:53:39;14.60;97.50
30534;DHT22;17318;52.390;9.754;2023-04-24T00:56:04;14.60;97.00
30534;DHT22;17318;52.390;9.754;2023-04-24T00:58:31;14.60;97.00
30534;DHT22;17318;52.390;9.754;2023-04-24T01:00:57;14.60;96.80
30534;DHT22;17318;52.390;9.754;2023-04-24T01:03:26;14.60;96.60
30534;DHT22;17318;52.390;9.754;2023-04-24T01:05:54;14.60;96.40
30534;DHT22;17318;52.390;9.754;2023-04-24T01:08:21;14.50;96.30
30534;DHT22;17318;52.390;9.754;2023-04-24T01:10:48;14.50;96.10
30534;DHT22;17318;52.390;9.754;2023-04-24T01:13:16;14.50;95.80
30534;DHT22;17318;52.390;9.754;2023-04-24T01:15:42;14.50;95.70
30534;DHT22;17318;52.390;9.754;2023-04-24T01:18:07;14.50;95.50
30534;DHT22;17318;52.390;9.754;2023-04-24T01:20:33;14.50;95.30
30534;DHT22;17318;52.390;9.754;2023-04-24T01:23:00;14.50;95.30
30534;DHT22;17318;52.390;9.754;2023-04-24T01:25:28;14.30;94.90
30534;DHT22;17318;52.390;9.754;2023-04-24T01:27:54;14.40;94.90
30534;DHT22;17318;52.390;9.754;2023-04-24T01:30:20;14.50;94.60
30534;DHT22;17318;52.390;9.754;2023-04-24T01:32:45;14.50;94.70
30534;DHT22;17318;52.390;9.754;2023-04-24T01:35:11;14.50;94.80
30534;DHT22;17318;52.390;9.754;2023-04-24T01:37:37;14.50;94.70
30534;DHT22;17318;52.390;9.754;2023-04-24T01:40:07;14.30;94.40
30534;DHT22;17318;52.390;9.754;2023-04-24T01:42:34;14.40;94.40
30534;DHT22;17318;52.390;9.754;2023-04-24T01:45:02;14.30;94.60
30534;DHT22;17318;52.390;9.754;2023-04-24T01:47:30;14.30;94.30
30534;DHT22;17318;52.390;9.754;2023-04-24T01:49:55;14.30;94.20
30534;DHT22;17318;52.390;9.754;2023-04-24T01:52:21;14.30;94.30
30534;DHT22;17318;52.390;9.754;2023-04-24T01:54:47;14.30;94.30
30534;DHT22;17318;52.390;9.754;2023-04-24T01:57:14;14.30;94.00
30534;DHT22;17318;52.390;9.754;2023-04-24T01:59:40;14.20;93.80
30534;DHT22;17318;52.390;9.754;2023-04-24T02:02:05;14.30;94.00
30534;DHT22;17318;52.390;9.754;2023-04-24T02:04:31;14.20;94.00
30534;DHT22;17318;52.390;9.754;2023-04-24T02:06:57;14.20;94.10
30534;DHT22;17318;52.390;9.754;2023-04-24T02:09:22;14.10;94.10
30534;DHT22;17318;52.390;9.754;2023-04-24T02:11:48;14.10;94.20
30534;DHT22;17318;52.390;9.754;2023-04-24T02:14:14;14.10;94.40
30534;DHT22;17318;52.390;9.754;2023-04-24T02:16:39;14.00;94.50
30534;DHT22;17318;52.390;9.754;2023-04-24T02:19:05;14.00;94.60
30534;DHT22;17318;52.390;9.754;2023-04-24T02:21:31;14.10;94.60
30534;DHT22;17318;52.390;9.754;2023-04-24T02:23:58;14.00;94.50
30534;DHT22;17318;52.390;9.754;2023-04-24T02:26:24;14.00;94.50
30534;DHT22;17318;52.390;9.754;2023-04-24T02:28:50;14.00;94.60
30534;DHT22;17318;52.390;9.754;2023-04-24T02:31:16;14.00;94.50
30534;DHT22;17318;52.390;9.754;2023-04-24T02:33:41;14.00;94.50
30534;DHT22;17318;52.390;9.754;2023-04-24T02:36:07;14.10;94.40
30534;DHT22;17318;52.390;9.754;2023-04-24T02:38:33;14.00;94.50
30534;DHT22;17318;52.390;9.754;2023-04-24T02:40:58;14.00;94.50
30534;DHT22;17318;52.390;9.754;2023-04-24T02:43:24;14.00;94.60
30534;DHT22;17318;52.390;9.754;2023-04-24T02:45:49;13.90;94.70
30534;DHT22;17318;52.390;9.754;2023-04-24T02:48:15;14.00;94.50
30534;DHT22;17318;52.390;9.754;2023-04-24T02:50:42;14.00;94.70
30534;DHT22;17318;52.390;9.754;2023-04-24T02:53:07;14.00;94.60
30534;DHT22;17318;52.390;9.754;2023-04-24T02:55:33;14.00;94.80
30534;DHT22;17318;52.390;9.754;2023-04-24T02:57:59;13.90;94.90
30534;DHT22;17318;52.390;9.754;2023-04-24T03:00:25;13.90;94.80
30534;DHT22;17318;52.390;9.754;2023-04-24T03:02:51;13.90;94.70
30534;DHT22;17318;52.390;9.754;2023-04-24T03:05:16;13.90;94.70
30534;DHT22;17318;52.390;9.754;2023-04-24T03:07:42;13.90;94.70
30534;DHT22;17318;52.390;9.754;2023-04-24T03:10:08;13.80;94.70
30534;DHT22;17318;52.390;9.754;2023-04-24T03:12:34;13.90;94.80
30534;DHT22;17318;52.390;9.754;2023-04-24T03:14:59;13.80;94.60
30534;DHT22;17318;52.390;9.754;2023-04-24T03:17:25;13.80;94.60
30534;DHT22;17318;52.390;9.754;2023-04-24T03:19:51;13.70;94.60
30534;DHT22;17318;52.390;9.754;2023-04-24T03:22:16;13.70;94.70
30534;DHT22;17318;52.390;9.754;2023-04-24T03:24:42;13.70;94.70
30534;DHT22;17318;52.390;9.754;2023-04-24T03:27:08;13.70;94.60
30534;DHT22;17318;52.390;9.754;2023-04-24T03:29:33;13.70;94.70
30534;DHT22;17318;52.390;9.754;2023-04-24T03:31:59;13.80;94.50
30534;DHT22;17318;52.390;9.754;2023-04-24T03:34:24;13.80;94.50
30534;DHT22;17318;52.390;9.754;2023-04-24T03:36:50;13.70;94.50
30534;DHT22;17318;52.390;9.754;2023-04-24T03:39:16;13.70;94.40
30534;DHT22;17318;52.390;9.754;2023-04-24T03:41:42;13.60;94.60
30534;DHT22;17318;52.390;9.754;2023-04-24T03:44:07;13.70;94.50
30534;DHT22;17318;52.390;9.754;2023-04-24T03:46:33;13.60;94.40
30534;DHT22;17318;52.390;9.754;2023-04-24T03:48:58;13.60;94.50
30534;DHT22;17318;52.390;9.754;2023-04-24T03:51:24;13.50;94.60
30534;DHT22;17318;52.390;9.754;2023-04-24T03:53:50;13.50;94.60
30534;DHT22;17318;52.390;9.754;2023-04-24T03:56:16;13.50;94.60
30534;DHT22;17318;52.390;9.754;2023-04-24T03:58:42;13.40;94.70
30534;DHT22;17318;52.390;9.754;2023-04-24T04:01:08;13.50;95.10
30534;DHT22;17318;52.390;9.754;2023-04-24T04:03:33;13.50;95.00
30534;DHT22;17318;52.390;9.754;2023-04-24T04:05:59;13.50;95.00
30534;DHT22;17318;52.390;9.754;2023-04-24T04:08:25;13.40;95.00
30534;DHT22;17318;52.390;9.754;2023-04-24T04:10:50;13.40;95.10
30534;DHT22;17318;52.390;9.754;2023-04-24T04:13:16;13.40;95.10
30534;DHT22;17318;52.390;9.754;2023-04-24T04:15:42;13.40;95.10
30534;DHT22;17318;52.390;9.754;2023-04-24T04:18:07;13.40;95.20
30534;DHT22;17318;52.390;9.754;2023-04-24T04:20:34;13.40;95.20
30534;DHT22;17318;52.390;9.754;2023-04-24T04:22:59;13.40;95.30
30534;DHT22;17318;52.390;9.754;2023-04-24T04:25:25;13.40;95.20
30534;DHT22;17318;52.390;9.754;2023-04-24T04:27:51;13.50;95.30
30534;DHT22;17318;52.390;9.754;2023-04-24T04:30:17;13.40;95.30
30534;DHT22;17318;52.390;9.754;2023-04-24T04:32:43;13.40;95.40
30534;DHT22;17318;52.390;9.754;2023-04-24T04:35:09;13.30;95.50
30534;DHT22;17318;52.390;9.754;2023-04-24T04:37:35;13.20;95.80
30534;DHT22;17318;52.390;9.754;2023-04-24T04:40:02;13.30;95.70
30534;DHT22;17318;52.390;9.754;2023-04-24T04:42:32;13.30;95.80
30534;DHT22;17318;52.390;9.754;2023-04-24T04:44:59;13.30;95.90
30534;DHT22;17318;52.390;9.754;2023-04-24T04:47:26;13.30;95.80
30534;DHT22;17318;52.390;9.754;2023-04-24T04:49:52;13.30;95.80
30534;DHT22;17318;52.390;9.754;2023-04-24T04:52:18;13.30;95.80
30534;DHT22;17318;52.390;9.754;2023-04-24T04:54:44;13.40;95.80
30534;DHT22;17318;52.390;9.754;2023-04-24T04:57:10;13.40;95.80
30534;DHT22;17318;52.390;9.754;2023-04-24T04:59:36;13.40;95.80
30534;DHT22;17318;52.390;9.754;2023-04-24T05:02:02;13.40;96.00
30534;DHT22;17318;52.390;9.754;2023-04-24T05:04:28;13.40;96.00
30534;DHT22;17318;52.390;9.754;2023-04-24T05:06:53;13.30;96.10
30534;DHT22;17318;52.390;9.754;2023-04-24T05:09:19;13.30;96.10
30534;DHT22;17318;52.390;9.754;2023-04-24T05:11:45;13.30;96.10
30534;DHT22;17318;52.390;9.754;2023-04-24T05:14:10;13.30;96.30
30534;DHT22;17318;52.390;9.754;2023-04-24T05:16:38;13.40;96.30
30534;DHT22;17318;52.390;9.754;2023-04-24T05:19:04;13.40;96.20
30534;DHT22;17318;52.390;9.754;2023-04-24T05:21:30;13.50;96.20
30534;DHT22;17318;52.390;9.754;2023-04-24T05:23:56;13.60;96.10
30534;DHT22;17318;52.390;9.754;2023-04-24T05:26:21;13.50;96.40
30534;DHT22;17318;52.390;9.754;2023-04-24T05:28:48;13.60;96.20
30534;DHT22;17318;52.390;9.754;2023-04-24T05:31:13;13.60;96.10
30534;DHT22;17318;52.390;9.754;2023-04-24T05:33:39;13.60;96.20
30534;DHT22;17318;52.390;9.754;2023-04-24T05:36:06;13.70;96.00
30534;DHT22;17318;52.390;9.754;2023-04-24T05:38:32;13.70;96.00
30534;DHT22;17318;52.390;9.754;2023-04-24T05:40:57;13.70;95.90
30534;DHT22;17318;52.390;9.754;2023-04-24T05:43:23;13.80;95.90
30534;DHT22;17318;52.390;9.754;2023-04-24T05:45:49;13.90;95.70
30534;DHT22;17318;52.390;9.754;2023-04-24T05:48:15;13.90;95.70
30534;DHT22;17318;52.390;9.754;2023-04-24T05:50:41;13.90;95.70
30534;DHT22;17318;52.390;9.754;2023-04-24T05:53:06;13.90;95.70
30534;DHT22;17318;52.390;9.754;2023-04-24T05:55:32;13.90;95.60
30534;DHT22;17318;52.390;9.754;2023-04-24T05:57:58;13.90;95.60
30534;DHT22;17318;52.390;9.754;2023-04-24T06:00:25;14.00;95.70
30534;DHT22;17318;52.390;9.754;2023-04-24T06:02:50;14.10;95.60
30534;DHT22;17318;52.390;9.754;2023-04-24T06:05:18;14.10;95.40
30534;DHT22;17318;52.390;9.754;2023-04-24T06:07:44;14.20;96.30
30534;DHT22;17318;52.390;9.754;2023-04-24T06:10:10;14.20;94.90
30534;DHT22;17318;52.390;9.754;2023-04-24T06:12:36;14.20;94.70
30534;DHT22;17318;52.390;9.754;2023-04-24T06:15:03;14.20;94.20
30534;DHT22;17318;52.390;9.754;2023-04-24T06:17:29;14.20;94.20
30534;DHT22;17318;52.390;9.754;2023-04-24T06:19:54;14.20;94.20
30534;DHT22;17318;52.390;9.754;2023-04-24T06:22:20;14.20;93.80
30534;DHT22;17318;52.390;9.754;2023-04-24T06:24:45;14.10;93.10
30534;DHT22;17318;52.390;9.754;2023-04-24T06:27:13;14.10;92.80
30534;DHT22;17318;52.390;9.754;2023-04-24T06:29:39;14.00;92.20
30534;DHT22;17318;52.390;9.754;2023-04-24T06:32:05;13.90;92.20
30534;DHT22;17318;52.390;9.754;2023-04-24T06:34:30;13.90;92.30
30534;DHT22;17318;52.390;9.754;2023-04-24T06:36:58;13.80;92.40
30534;DHT22;17318;52.390;9.754;2023-04-24T06:39:23;14.00;92.40
30534;DHT22;17318;52.390;9.754;2023-04-24T06:41:49;14.00;92.30
30534;DHT22;17318;52.390;9.754;2023-04-24T06:44:15;14.00;92.30
30534;DHT22;17318;52.390;9.754;2023-04-24T06:46:41;14.10;92.30
30534;DHT22;17318;52.390;9.754;2023-04-24T06:49:08;14.00;92.50
30534;DHT22;17318;52.390;9.754;2023-04-24T06:51:33;14.10;92.40
30534;DHT22;17318;52.390;9.754;2023-04-24T06:53:59;14.00;92.30
30534;DHT22;17318;52.390;9.754;2023-04-24T06:56:25;13.90;92.50
30534;DHT22;17318;52.390;9.754;2023-04-24T06:58:51;14.10;92.60
30534;DHT22;17318;52.390;9.754;2023-04-24T07:01:17;14.20;92.40
30534;DHT22;17318;52.390;9.754;2023-04-24T07:03:43;14.20;92.20
30534;DHT22;17318;52.390;9.754;2023-04-24T07:06:09;14.20;92.30
30534;DHT22;17318;52.390;9.754;2023-04-24T07:08:36;14.10;92.10
30534;DHT22;17318;52.390;9.754;2023-04-24T07:11:03;14.20;92.20
30534;DHT22;17318;52.390;9.754;2023-04-24T07:13:35;14.20;91.80
30534;DHT22;17318;52.390;9.754;2023-04-24T07:16:00;14.10;91.60
30534;DHT22;17318;52.390;9.754;2023-04-24T07:18:26;14.20;91.70
30534;DHT22;17318;52.390;9.754;2023-04-24T07:20:52;14.30;91.70
30534;DHT22;17318;52.390;9.754;2023-04-24T07:23:19;14.30;91.60
30534;DHT22;17318;52.390;9.754;2023-04-24T07:25:44;14.30;91.60
30534;DHT22;17318;52.390;9.754;2023-04-24T07:28:10;14.30;91.30
30534;DHT22;17318;52.390;9.754;2023-04-24T07:30:36;14.50;91.60
30534;DHT22;17318;52.390;9.754;2023-04-24T07:33:02;14.30;90.90
30534;DHT22;17318;52.390;9.754;2023-04-24T07:35:27;14.20;91.20
30534;DHT22;17318;52.390;9.754;2023-04-24T07:37:53;14.30;90.90
30534;DHT22;17318;52.390;9.754;2023-04-24T07:40:20;14.40;90.70
30534;DHT22;17318;52.390;9.754;2023-04-24T07:42:45;14.50;90.60
30534;DHT22;17318;52.390;9.754;2023-04-24T07:45:14;14.80;90.90
30534;DHT22;17318;52.390;9.754;2023-04-24T07:47:40;15.50;90.20
30534;DHT22;17318;52.390;9.754;2023-04-24T07:50:09;16.50;87.80
30534;DHT22;17318;52.390;9.754;2023-04-24T07:52:35;16.80;85.90
30534;DHT22;17318;52.390;9.754;2023-04-24T07:55:01;16.60;85.40
30534;DHT22;17318;52.390;9.754;2023-04-24T07:57:28;16.30;85.40
30534;DHT22;17318;52.390;9.754;2023-04-24T07:59:54;16.10;86.00
30534;DHT22;17318;52.390;9.754;2023-04-24T08:02:19;15.80;86.80
30534;DHT22;17318;52.390;9.754;2023-04-24T08:04:46;16.00;87.30
30534;DHT22;17318;52.390;9.754;2023-04-24T08:07:12;16.20;86.40
30534;DHT22;17318;52.390;9.754;2023-04-24T08:09:38;15.60;86.40
30534;DHT22;17318;52.390;9.754;2023-04-24T08:12:04;15.60;87.40
30534;DHT22;17318;52.390;9.754;2023-04-24T08:14:30;15.50;87.90
30534;DHT22;17318;52.390;9.754;2023-04-24T08:16:55;15.60;87.90
30534;DHT22;17318;52.390;9.754;2023-04-24T08:19:21;15.60;88.10
30534;DHT22;17318;52.390;9.754;2023-04-24T08:21:47;15.70;88.50
30534;DHT22;17318;52.390;9.754;2023-04-24T08:24:13;15.90;87.90
30534;DHT22;17318;52.390;9.754;2023-04-24T08:26:39;16.10;87.70
30534;DHT22;17318;52.390;9.754;2023-04-24T08:29:05;16.70;87.30
30534;DHT22;17318;52.390;9.754;2023-04-24T08:31:32;16.50;85.50
30534;DHT22;17318;52.390;9.754;2023-04-24T08:33:58;16.30;86.10
30534;DHT22;17318;52.390;9.754;2023-04-24T08:36:25;16.40;85.80
30534;DHT22;17318;52.390;9.754;2023-04-24T08:38:51;16.70;85.10
30534;DHT22;17318;52.390;9.754;2023-04-24T08:41:18;17.40;84.00
30534;DHT22;17318;52.390;9.754;2023-04-24T08:43:46;18.00;81.80
30534;DHT22;17318;52.390;9.754;2023-04-24T08:46:13;18.10;79.40
30534;DHT22;17318;52.390;9.754;2023-04-24T08:48:39;17.50;79.50
30534;DHT22;17318;52.390;9.754;2023-04-24T08:51:07;18.30;81.10
30534;DHT22;17318;52.390;9.754;2023-04-24T08:53:33;19.30;77.30
30534;DHT22;17318;52.390;9.754;2023-04-24T08:55:59;20.60;75.10
30534;DHT22;17318;52.390;9.754;2023-04-24T08:58:27;20.50;73.10
30534;DHT22;17318;52.390;9.754;2023-04-24T09:00:57;20.00;70.50
30534;DHT22;17318;52.390;9.754;2023-04-24T09:03:23;19.90;72.00
30534;DHT22;17318;52.390;9.754;2023-04-24T09:05:50;19.20;71.90
30534;DHT22;17318;52.390;9.754;2023-04-24T09:08:19;18.70;71.30
30534;DHT22;17318;52.390;9.754;2023-04-24T09:10:47;18.00;71.50
30534;DHT22;17318;52.390;9.754;2023-04-24T09:13:13;17.50;73.10
30534;DHT22;17318;52.390;9.754;2023-04-24T09:15:40;17.40;73.90
30534;DHT22;17318;52.390;9.754;2023-04-24T09:18:06;17.50;73.80
30534;DHT22;17318;52.390;9.754;2023-04-24T09:20:32;17.10;74.40
30534;DHT22;17318;52.390;9.754;2023-04-24T09:22:58;16.90;75.10
30534;DHT22;17318;52.390;9.754;2023-04-24T09:25:35;16.60;75.90
30534;DHT22;17318;52.390;9.754;2023-04-24T09:28:04;16.40;76.60
30534;DHT22;17318;52.390;9.754;2023-04-24T09:30:31;16.40;77.00
30534;DHT22;17318;52.390;9.754;2023-04-24T09:33:15;16.10;77.80
30534;DHT22;17318;52.390;9.754;2023-04-24T09:35:52;16.30;78.00
30534;DHT22;17318;52.390;9.754;2023-04-24T09:38:18;16.20;78.10
30534;DHT22;17318;52.390;9.754;2023-04-24T09:40:44;16.00;78.40
30534;DHT22;17318;52.390;9.754;2023-04-24T09:43:12;15.80;78.70
30534;DHT22;17318;52.390;9.754;2023-04-24T09:45:39;15.70;79.10
30534;DHT22;17318;52.390;9.754;2023-04-24T09:48:07;15.80;79.30
30534;DHT22;17318;52.390;9.754;2023-04-24T09:50:34;15.60;79.70
30534;DHT22;17318;52.390;9.754;2023-04-24T09:53:04;15.70;80.00
30534;DHT22;17318;52.390;9.754;2023-04-24T09:55:31;15.60;80.20
30534;DHT22;17318;52.390;9.754;2023-04-24T09:57:57;15.60;80.40
30534;DHT22;17318;52.390;9.754;2023-04-24T10:00:28;15.80;80.30
30534;DHT22;17318;52.390;9.754;2023-04-24T10:02:58;15.70;80.00
30534;DHT22;17318;52.390;9.754;2023-04-24T10:05:28;15.70;80.20
30534;DHT22;17318;52.390;9.754;2023-04-24T10:08:16;15.70;80.30
30534;DHT22;17318;52.390;9.754;2023-04-24T10:10:44;15.60;80.50
30534;DHT22;17318;52.390;9.754;2023-04-24T10:13:11;15.30;81.40
30534;DHT22;17318;52.390;9.754;2023-04-24T10:15:38;15.30;81.70
30534;DHT22;17318;52.390;9.754;2023-04-24T10:18:05;15.30;81.70
30534;DHT22;17318;52.390;9.754;2023-04-24T10:20:32;15.30;81.60
30534;DHT22;17318;52.390;9.754;2023-04-24T10:22:59;15.40;81.70
30534;DHT22;17318;52.390;9.754;2023-04-24T10:25:30;15.40;81.40
30534;DHT22;17318;52.390;9.754;2023-04-24T10:27:57;15.30;81.90
30534;DHT22;17318;52.390;9.754;2023-04-24T10:30:26;15.20;82.30
30534;DHT22;17318;52.390;9.754;2023-04-24T10:32:52;15.00;82.80
30534;DHT22;17318;52.390;9.754;2023-04-24T10:35:18;15.10;83.20
30534;DHT22;17318;52.390;9.754;2023-04-24T10:37:51;15.10;83.10
30534;DHT22;17318;52.390;9.754;2023-04-24T10:40:25;15.10;83.00
30534;DHT22;17318;52.390;9.754;2023-04-24T10:42:52;15.00;83.00
30534;DHT22;17318;52.390;9.754;2023-04-24T10:45:22;14.90;83.70
30534;DHT22;17318;52.390;9.754;2023-04-24T10:48:05;14.90;84.20
30534;DHT22;17318;52.390;9.754;2023-04-24T10:50:51;14.80;84.60
30534;DHT22;17318;52.390;9.754;2023-04-24T10:53:22;14.80;84.20
30534;DHT22;17318;52.390;9.754;2023-04-24T10:55:58;14.70;84.30
30534;DHT22;17318;52.390;9.754;2023-04-24T10:58:26;14.80;85.00
30534;DHT22;17318;52.390;9.754;2023-04-24T11:01:00;14.70;84.60
30534;DHT22;17318;52.390;9.754;2023-04-24T11:03:28;14.70;84.90
30534;DHT22;17318;52.390;9.754;2023-04-24T11:06:08;14.70;84.60
30534;DHT22;17318;52.390;9.754;2023-04-24T11:08:44;14.80;84.70
30534;DHT22;17318;52.390;9.754;2023-04-24T11:11:15;14.80;84.80
30534;DHT22;17318;52.390;9.754;2023-04-24T11:16:44;14.90;84.70
30534;DHT22;17318;52.390;9.754;2023-04-24T11:19:18;14.90;84.50
30534;DHT22;17318;52.390;9.754;2023-04-24T11:22:03;14.80;84.80
30534;DHT22;17318;52.390;9.754;2023-04-24T11:24:36;14.80;84.60
30534;DHT22;17318;52.390;9.754;2023-04-24T11:27:25;14.80;84.70
30534;DHT22;17318;52.390;9.754;2023-04-24T11:35:03;14.60;85.30
30534;DHT22;17318;52.390;9.754;2023-04-24T11:37:37;14.60;84.80
30534;DHT22;17318;52.390;9.754;2023-04-24T11:40:04;14.60;84.50
30534;DHT22;17318;52.390;9.754;2023-04-24T11:42:38;14.80;84.50
30534;DHT22;17318;52.390;9.754;2023-04-24T11:45:09;14.90;84.20
30534;DHT22;17318;52.390;9.754;2023-04-24T11:47:35;14.80;83.90
30534;DHT22;17318;52.390;9.754;2023-04-24T11:50:03;14.80;84.50
30534;DHT22;17318;52.390;9.754;2023-04-24T11:52:29;14.80;84.40
30534;DHT22;17318;52.390;9.754;2023-04-24T11:54:56;14.70;84.60
30534;DHT22;17318;52.390;9.754;2023-04-24T11:57:23;14.70;84.60
30534;DHT22;17318;52.390;9.754;2023-04-24T11:59:51;14.70;84.80
30534;DHT22;17318;52.390;9.754;2023-04-24T12:02:21;14.80;85.10
30534;DHT22;17318;52.390;9.754;2023-04-24T12:04:47;14.80;84.80
30534;DHT22;17318;52.390;9.754;2023-04-24T12:07:13;14.80;84.90
30534;DHT22;17318;52.390;9.754;2023-04-24T12:09:43;14.70;84.20
30534;DHT22;17318;52.390;9.754;2023-04-24T12:12:10;14.80;84.30
30534;DHT22;17318;52.390;9.754;2023-04-24T12:14:49;14.70;84.20
30534;DHT22;17318;52.390;9.754;2023-04-24T12:17:24;14.80;84.00
30534;DHT22;17318;52.390;9.754;2023-04-24T12:19:50;14.60;84.00
30534;DHT22;17318;52.390;9.754;2023-04-24T12:22:16;14.70;84.00
30534;DHT22;17318;52.390;9.754;2023-04-24T12:27:23;14.40;84.00
30534;DHT22;17318;52.390;9.754;2023-04-24T12:29:56;14.50;84.30
30534;DHT22;17318;52.390;9.754;2023-04-24T12:32:22;14.40;84.50
30534;DHT22;17318;52.390;9.754;2023-04-24T12:34:49;14.50;84.60
30534;DHT22;17318;52.390;9.754;2023-04-24T12:37:16;14.60;84.90
30534;DHT22;17318;52.390;9.754;2023-04-24T12:40:01;14.80;85.10
30534;DHT22;17318;52.390;9.754;2023-04-24T12:42:30;14.70;85.40
30534;DHT22;17318;52.390;9.754;2023-04-24T12:44:58;14.70;85.40
30534;DHT22;17318;52.390;9.754;2023-04-24T12:47:25;14.70;85.40
30534;DHT22;17318;52.390;9.754;2023-04-24T12:49:51;14.90;85.40
30534;DHT22;17318;52.390;9.754;2023-04-24T12:52:18;14.90;84.80
30534;DHT22;17318;52.390;9.754;2023-04-24T12:54:45;14.80;84.60
30534;DHT22;17318;52.390;9.754;2023-04-24T12:57:11;14.80;85.00
30534;DHT22;17318;52.390;9.754;2023-04-24T12:59:37;14.80;85.20
30534;DHT22;17318;52.390;9.754;2023-04-24T13:02:05;14.80;85.20
30534;DHT22;17318;52.390;9.754;2023-04-24T13:04:31;14.60;85.90
30534;DHT22;17318;52.390;9.754;2023-04-24T13:06:57;14.30;87.00
30534;DHT22;17318;52.390;9.754;2023-04-24T13:09:23;14.40;87.20
30534;DHT22;17318;52.390;9.754;2023-04-24T13:11:49;14.30;87.70
30534;DHT22;17318;52.390;9.754;2023-04-24T13:14:15;14.00;89.00
30534;DHT22;17318;52.390;9.754;2023-04-24T13:16:41;14.10;89.60
30534;DHT22;17318;52.390;9.754;2023-04-24T13:19:06;13.70;90.60
30534;DHT22;17318;52.390;9.754;2023-04-24T13:21:32;13.70;91.20
30534;DHT22;17318;52.390;9.754;2023-04-24T13:23:58;13.50;91.60
30534;DHT22;17318;52.390;9.754;2023-04-24T13:26:24;13.50;91.90
30534;DHT22;17318;52.390;9.754;2023-04-24T13:28:50;13.60;92.00
30534;DHT22;17318;52.390;9.754;2023-04-24T13:31:16;13.40;92.10
30534;DHT22;17318;52.390;9.754;2023-04-24T13:33:42;13.30;92.40
30534;DHT22;17318;52.390;9.754;2023-04-24T13:36:08;13.30;92.30
30534;DHT22;17318;52.390;9.754;2023-04-24T13:38:34;13.40;92.70
30534;DHT22;17318;52.390;9.754;2023-04-24T13:41:00;13.40;92.20
30534;DHT22;17318;52.390;9.754;2023-04-24T13:43:26;13.40;92.20
30534;DHT22;17318;52.390;9.754;2023-04-24T13:45:52;13.30;92.20
30534;DHT22;17318;52.390;9.754;2023-04-24T13:48:18;13.10;92.80
30534;DHT22;17318;52.390;9.754;2023-04-24T13:50:44;13.20;93.60
30534;DHT22;17318;52.390;9.754;2023-04-24T13:53:10;13.10;94.30
30534;DHT22;17318;52.390;9.754;2023-04-24T13:55:36;12.80;94.40
30534;DHT22;17318;52.390;9.754;2023-04-24T13:58:02;12.50;95.10
30534;DHT22;17318;52.390;9.754;2023-04-24T14:00:28;12.50;95.00
30534;DHT22;17318;52.390;9.754;2023-04-24T14:02:53;12.30;94.80
30534;DHT22;17318;52.390;9.754;2023-04-24T14:05:19;12.50;94.90
30534;DHT22;17318;52.390;9.754;2023-04-24T14:07:46;12.80;94.90
30534;DHT22;17318;52.390;9.754;2023-04-24T14:10:12;12.60;94.70
30534;DHT22;17318;52.390;9.754;2023-04-24T14:12:37;12.40;95.10
30534;DHT22;17318;52.390;9.754;2023-04-24T14:15:04;12.40;95.60
30534;DHT22;17318;52.390;9.754;2023-04-24T14:17:30;12.40;95.60
30534;DHT22;17318;52.390;9.754;2023-04-24T14:19:56;12.30;95.90
30534;DHT22;17318;52.390;9.754;2023-04-24T14:22:22;12.10;97.20
30534;DHT22;17318;52.390;9.754;2023-04-24T14:24:48;12.10;97.80
30534;DHT22;17318;52.390;9.754;2023-04-24T14:27:13;12.20;97.80
30534;DHT22;17318;52.390;9.754;2023-04-24T14:29:39;12.50;98.10
30534;DHT22;17318;52.390;9.754;2023-04-24T14:32:05;12.70;97.80
30534;DHT22;17318;52.390;9.754;2023-04-24T14:34:30;12.40;98.60
30534;DHT22;17318;52.390;9.754;2023-04-24T14:36:56;12.10;98.50
30534;DHT22;17318;52.390;9.754;2023-04-24T14:39:22;12.20;98.80
30534;DHT22;17318;52.390;9.754;2023-04-24T14:41:47;12.10;99.40
30534;DHT22;17318;52.390;9.754;2023-04-24T14:44:13;12.10;99.50
30534;DHT22;17318;52.390;9.754;2023-04-24T14:46:38;12.10;99.50
30534;DHT22;17318;52.390;9.754;2023-04-24T14:49:04;12.10;99.20
30534;DHT22;17318;52.390;9.754;2023-04-24T14:51:30;12.00;99.00
30534;DHT22;17318;52.390;9.754;2023-04-24T14:53:59;12.20;99.00
30534;DHT22;17318;52.390;9.754;2023-04-24T14:56:25;12.20;99.10
30534;DHT22;17318;52.390;9.754;2023-04-24T14:58:50;12.20;98.90
30534;DHT22;17318;52.390;9.754;2023-04-24T15:01:16;12.10;99.10
30534;DHT22;17318;52.390;9.754;2023-04-24T15:03:43;12.00;99.10
30534;DHT22;17318;52.390;9.754;2023-04-24T15:06:08;11.90;99.20
30534;DHT22;17318;52.390;9.754;2023-04-24T15:08:34;12.00;99.20
30534;DHT22;17318;52.390;9.754;2023-04-24T15:11:00;12.00;99.30
30534;DHT22;17318;52.390;9.754;2023-04-24T15:13:26;12.10;99.30
30534;DHT22;17318;52.390;9.754;2023-04-24T15:15:51;12.00;99.70
30534;DHT22;17318;52.390;9.754;2023-04-24T15:18:17;12.20;99.70
30534;DHT22;17318;52.390;9.754;2023-04-24T15:20:43;12.10;99.50
30534;DHT22;17318;52.390;9.754;2023-04-24T15:23:09;12.10;99.60
30534;DHT22;17318;52.390;9.754;2023-04-24T15:25:36;12.00;99.50
30534;DHT22;17318;52.390;9.754;2023-04-24T15:28:02;11.90;99.00
30534;DHT22;17318;52.390;9.754;2023-04-24T15:30:28;11.80;99.60
30534;DHT22;17318;52.390;9.754;2023-04-24T15:32:54;12.10;99.50
30534;DHT22;17318;52.390;9.754;2023-04-24T15:35:20;12.20;99.50
30534;DHT22;17318;52.390;9.754;2023-04-24T15:37:45;12.20;99.10